Overview Statistics Trail Chart Weather Telemetry Raw packets
 

This is the latest recevied weather packets stored in our database for station/object KD2FKI. If no packets are shown the sender has not sent any weather packets the latest 10 day(s).

<< 1 2 3 4 5 >>
Time Temp. Humidity Pressure Rain* Wind** Luminosity Snow
1778202636 13.89° C 72% - 0 mm - - -
1778202047 13.89° C 71% - 0 mm - - -
1778201435 14.44° C 70% - 0 mm - - -
1778200845 14.44° C 68% - 0 mm - - -
1778200232 15° C 68% - 0 mm - - -
1778199643 15° C 66% - 0 mm - - -
1778199030 15.56° C 66% - 0 mm - - -
1778198439 15.56° C 65% - 0 mm - - -
1778197850 16.67° C 62% - 0 mm - - -
1778197254 16.67° C 60% - 0 mm - - -
1778196643 17.78° C 57% - 0 mm - - -
1778196036 18.33° C 54% - 0 mm - - -
1778195440 18.89° C 52% - 0 mm - - -
1778194830 19.44° C 50% - 0 mm - - -
1778194243 19.44° C 51% - 0 mm - - -
1778193646 20° C 49% - 0 mm - - -
1778193036 20.56° C 50% - 0 mm - - -
1778192445 19.44° C 52% - 0 mm - - -
1778191833 19.44° C 52% - 0 mm - - -
1778191241 20° C 52% - 0 mm - - -
1778190635 19.44° C 51% - 0 mm - - -
1778190039 21.11° C 46% - 0 mm - - -
1778189449 21.67° C 46% - 0 mm - - -
1778188837 20.56° C 48% - 0 mm - - -
1778188246 20.56° C 42% - 0 mm - - -

* Rain latest hour (hover to see other rain measurements)
** Current wind speed in m/s (hover to see current wind gust speed)